createdAt,value
2019-03-31T00:02:26.864Z,71.26
2019-03-31T00:04:59.539Z,71.24
2019-03-31T00:07:32.218Z,71.16
2019-03-31T00:10:06.571Z,71.22
2019-03-31T00:12:39.627Z,71.24
2019-03-31T00:15:12.506Z,71.09
2019-03-31T00:17:45.094Z,71.21
2019-03-31T00:20:17.972Z,71.25
2019-03-31T00:22:50.552Z,71.34
2019-03-31T00:25:23.126Z,71.54
2019-03-31T00:27:55.697Z,71.66
2019-03-31T00:30:28.998Z,71.74
2019-03-31T00:33:01.730Z,71.85
2019-03-31T00:35:34.348Z,71.92
2019-03-31T00:38:06.927Z,71.80
2019-03-31T00:40:39.507Z,72.05
2019-03-31T00:43:12.084Z,72.12
2019-03-31T00:45:44.654Z,72.14
2019-03-31T00:48:18.263Z,72.43
2019-03-31T00:50:50.834Z,72.72
2019-03-31T00:53:24.542Z,72.97
2019-03-31T00:55:57.117Z,73.05
2019-03-31T00:58:29.692Z,73.05
2019-03-31T01:01:04.301Z,73.03
2019-03-31T01:03:38.940Z,73.13
2019-03-31T01:06:12.443Z,73.20
2019-03-31T01:08:46.754Z,73.15
2019-03-31T01:11:22.408Z,73.40
2019-03-31T01:13:56.930Z,73.40
2019-03-31T01:16:31.446Z,73.52
2019-03-31T01:19:04.545Z,73.41
2019-03-31T01:21:37.119Z,73.52
2019-03-31T01:24:09.805Z,73.46
2019-03-31T01:26:43.278Z,73.59
2019-03-31T01:29:17.102Z,73.67
2019-03-31T01:31:50.906Z,73.78
2019-03-31T01:34:24.916Z,73.79
2019-03-31T01:36:57.591Z,73.79
2019-03-31T01:39:31.504Z,73.95
2019-03-31T01:42:04.179Z,73.91
2019-03-31T01:44:36.369Z,73.96
2019-03-31T01:47:09.438Z,74.05
2019-03-31T01:49:42.010Z,74.03
2019-03-31T01:52:14.594Z,74.06
2019-03-31T01:54:47.171Z,74.25
2019-03-31T01:57:19.747Z,74.10
2019-03-31T01:59:52.167Z,74.12
2019-03-31T02:02:29.397Z,74.15
2019-03-31T02:05:01.982Z,74.26
2019-03-31T02:07:35.478Z,74.38
2019-03-31T02:10:09.590Z,74.35
2019-03-31T02:12:43.812Z,74.32
2019-03-31T02:15:16.891Z,74.29
2019-03-31T02:17:49.531Z,74.35
2019-03-31T02:20:23.690Z,74.33
2019-03-31T02:22:56.268Z,74.40
2019-03-31T02:25:28.458Z,74.55
2019-03-31T02:28:01.007Z,74.63
2019-03-31T02:30:33.585Z,74.62
2019-03-31T02:33:06.059Z,74.77
2019-03-31T02:35:38.239Z,74.82
2019-03-31T02:38:10.805Z,74.85
2019-03-31T02:40:43.886Z,74.78
2019-03-31T02:43:16.463Z,74.80
2019-03-31T02:45:49.253Z,74.97
2019-03-31T02:48:21.826Z,74.86
2019-03-31T02:50:55.835Z,74.88
2019-03-31T02:53:28.571Z,74.72
2019-03-31T02:56:02.039Z,74.57
2019-03-31T02:58:34.790Z,74.48
2019-03-31T03:01:07.475Z,74.37
2019-03-31T03:03:42.408Z,74.19
2019-03-31T03:06:16.176Z,73.89
2019-03-31T03:08:51.593Z,73.86
2019-03-31T03:11:25.761Z,73.83
2019-03-31T03:14:02.237Z,73.49
2019-03-31T03:16:34.947Z,73.51
2019-03-31T03:19:07.487Z,73.19
2019-03-31T03:21:40.073Z,73.12
2019-03-31T03:24:12.657Z,73.07
2019-03-31T03:26:45.226Z,72.96
2019-03-31T03:29:17.691Z,73.33
2019-03-31T03:31:50.614Z,72.94
2019-03-31T03:34:23.374Z,72.51
2019-03-31T03:36:55.949Z,72.55
2019-03-31T03:39:28.516Z,72.48
2019-03-31T03:42:01.091Z,72.41
2019-03-31T03:44:33.669Z,72.57
2019-03-31T03:47:06.248Z,72.46
2019-03-31T03:49:38.838Z,72.42
2019-03-31T03:52:11.389Z,72.33
2019-03-31T03:54:43.975Z,72.27
2019-03-31T03:57:16.569Z,72.25
2019-03-31T03:59:49.101Z,72.26
2019-03-31T04:02:21.318Z,72.35
2019-03-31T04:04:53.974Z,72.13
2019-03-31T04:07:26.551Z,72.16
2019-03-31T04:09:59.127Z,72.43
2019-03-31T04:12:31.708Z,72.47
2019-03-31T04:15:04.273Z,72.34
2019-03-31T04:17:36.858Z,72.45
2019-03-31T04:20:09.438Z,72.67
2019-03-31T04:22:42.026Z,72.71
2019-03-31T04:25:14.594Z,72.76
2019-03-31T04:27:47.227Z,72.94
2019-03-31T04:30:19.739Z,73.07
2019-03-31T04:32:51.938Z,73.39
2019-03-31T04:35:24.586Z,73.42
2019-03-31T04:37:57.157Z,73.73
2019-03-31T04:40:29.531Z,73.82
2019-03-31T04:43:01.722Z,74.04
2019-03-31T04:45:34.688Z,74.19
2019-03-31T04:48:07.266Z,74.40
2019-03-31T04:50:41.271Z,74.41
2019-03-31T04:53:14.568Z,74.60
2019-03-31T04:55:48.477Z,74.64
2019-03-31T04:58:21.056Z,74.88
2019-03-31T05:00:53.640Z,74.86
2019-03-31T05:03:26.211Z,74.89
2019-03-31T05:05:58.790Z,74.92
2019-03-31T05:08:31.565Z,74.97
2019-03-31T05:11:04.146Z,74.84
2019-03-31T05:13:36.558Z,75.06
2019-03-31T05:16:09.079Z,74.90
2019-03-31T05:18:41.763Z,74.90
2019-03-31T05:21:14.237Z,74.83
2019-03-31T05:23:46.818Z,74.71
2019-03-31T05:26:20.427Z,74.59
2019-03-31T05:28:52.997Z,74.52
2019-03-31T05:31:25.630Z,74.42
2019-03-31T05:33:57.833Z,74.29
2019-03-31T05:36:30.310Z,74.11
2019-03-31T05:39:02.903Z,73.99
2019-03-31T05:41:35.468Z,74.09
2019-03-31T05:44:08.450Z,74.01
2019-03-31T05:46:41.037Z,73.95
2019-03-31T05:49:13.716Z,73.82
2019-03-31T05:51:46.290Z,73.71
2019-03-31T05:54:18.865Z,73.57
2019-03-31T05:56:51.442Z,73.43
2019-03-31T05:59:24.018Z,73.33
2019-03-31T06:01:56.596Z,73.21
2019-03-31T06:04:33.437Z,72.95
2019-03-31T06:07:02.979Z,72.34
2019-03-31T06:09:35.552Z,72.45
2019-03-31T06:12:08.139Z,72.18
2019-03-31T06:14:40.724Z,71.73
2019-03-31T06:17:14.309Z,71.78
2019-03-31T06:19:46.884Z,71.85
2019-03-31T06:22:19.454Z,71.46
2019-03-31T06:24:52.033Z,71.63
2019-03-31T06:27:25.636Z,71.37
2019-03-31T06:29:58.210Z,71.08
2019-03-31T06:32:30.790Z,70.53
2019-03-31T06:35:02.983Z,70.67
2019-03-31T06:37:35.529Z,70.42
2019-03-31T06:40:08.016Z,70.23
2019-03-31T06:42:40.383Z,70.04
2019-03-31T06:45:12.958Z,69.92
2019-03-31T06:47:45.529Z,68.49
2019-03-31T06:50:18.214Z,68.32
2019-03-31T06:52:50.738Z,68.18
2019-03-31T06:55:23.474Z,68.10
2019-03-31T06:57:56.046Z,67.39
2019-03-31T07:00:28.622Z,66.67
2019-03-31T07:03:01.251Z,68.12
2019-03-31T07:05:33.457Z,68.33
2019-03-31T07:08:06.147Z,68.81
2019-03-31T07:10:38.727Z,68.87
2019-03-31T07:13:11.314Z,68.97
2019-03-31T07:15:43.882Z,67.95
2019-03-31T07:18:16.495Z,67.58
2019-03-31T07:20:49.135Z,67.64
2019-03-31T07:23:21.805Z,67.42
2019-03-31T07:25:54.393Z,67.12
2019-03-31T07:28:26.974Z,66.88
2019-03-31T07:30:59.570Z,66.07
2019-03-31T07:33:32.521Z,65.08
2019-03-31T07:36:05.106Z,65.08
2019-03-31T07:38:39.241Z,64.46
2019-03-31T07:41:12.985Z,64.54
2019-03-31T07:43:47.027Z,64.56
2019-03-31T07:46:19.707Z,64.78
2019-03-31T07:48:52.298Z,64.36
2019-03-31T07:51:24.865Z,64.32
2019-03-31T07:53:57.441Z,63.86
2019-03-31T07:56:30.028Z,63.62
2019-03-31T07:59:02.672Z,63.29
2019-03-31T08:01:35.270Z,61.79
2019-03-31T08:04:07.855Z,61.15
2019-03-31T08:06:40.936Z,60.17
2019-03-31T08:09:13.511Z,60.61
2019-03-31T08:11:46.093Z,60.19
2019-03-31T08:14:18.670Z,59.53
2019-03-31T08:16:51.244Z,59.88
2019-03-31T08:19:23.824Z,59.97
2019-03-31T08:21:56.502Z,60.33
2019-03-31T08:24:30.611Z,59.49
2019-03-31T08:27:05.575Z,58.55
2019-03-31T08:29:37.511Z,57.72
2019-03-31T08:32:10.188Z,58.86
2019-03-31T08:34:42.768Z,58.36
2019-03-31T08:37:14.969Z,58.75
2019-03-31T08:39:47.530Z,57.58
2019-03-31T08:42:20.086Z,56.87
2019-03-31T08:44:52.220Z,58.98
2019-03-31T08:47:24.931Z,57.19
2019-03-31T08:49:57.506Z,58.45
2019-03-31T08:52:30.391Z,58.86
2019-03-31T08:55:02.967Z,61.67
2019-03-31T08:57:36.678Z,63.07
2019-03-31T09:00:13.431Z,61.45
2019-03-31T09:02:46.023Z,60.45
2019-03-31T09:05:18.601Z,59.24
2019-03-31T09:07:51.171Z,59.91
2019-03-31T09:10:23.754Z,58.88
2019-03-31T09:12:56.330Z,59.46
2019-03-31T09:15:28.907Z,57.94
2019-03-31T09:18:01.482Z,60.98
2019-03-31T09:20:34.056Z,61.37
2019-03-31T09:23:06.251Z,60.72
2019-03-31T09:25:38.797Z,60.12
2019-03-31T09:28:37.849Z,59.90
2019-03-31T09:31:11.243Z,60.55
2019-03-31T09:33:44.025Z,60.58
2019-03-31T09:36:16.994Z,59.48
2019-03-31T09:38:49.972Z,60.66
2019-03-31T09:41:22.227Z,59.48
2019-03-31T09:43:54.946Z,60.39
2019-03-31T09:46:28.135Z,60.26
2019-03-31T09:49:00.711Z,60.13
2019-03-31T09:51:32.845Z,60.31
2019-03-31T09:54:05.970Z,60.37
2019-03-31T09:56:39.570Z,61.03
2019-03-31T09:59:12.153Z,60.07
2019-03-31T10:01:45.027Z,59.35
2019-03-31T10:04:18.224Z,58.56
2019-03-31T10:06:50.793Z,57.30
2019-03-31T10:09:23.371Z,57.54
2019-03-31T10:11:56.153Z,56.71
2019-03-31T10:14:28.831Z,56.08
2019-03-31T10:17:01.518Z,56.07
2019-03-31T10:19:34.195Z,55.63
2019-03-31T10:22:06.781Z,57.32
2019-03-31T10:24:39.447Z,55.74
2019-03-31T10:27:12.325Z,55.95
2019-03-31T10:29:45.419Z,54.11
2019-03-31T10:32:19.218Z,55.00
2019-03-31T10:34:53.440Z,54.76
2019-03-31T10:37:26.026Z,51.88
2019-03-31T10:39:59.209Z,51.30
2019-03-31T10:42:31.692Z,50.47
2019-03-31T10:45:05.798Z,52.14
2019-03-31T10:47:38.682Z,50.69
2019-03-31T10:50:11.512Z,51.01
2019-03-31T10:52:43.599Z,51.61
2019-03-31T10:55:16.232Z,53.38
2019-03-31T10:57:50.012Z,52.03
2019-03-31T11:00:35.897Z,51.57
2019-03-31T11:03:09.030Z,50.07
2019-03-31T11:05:42.991Z,50.67
2019-03-31T11:08:15.891Z,51.55
2019-03-31T11:10:48.867Z,51.77
2019-03-31T11:13:21.446Z,53.43
2019-03-31T11:15:57.343Z,53.41
2019-03-31T11:18:28.433Z,54.53
2019-03-31T11:21:02.659Z,52.63
2019-03-31T11:23:35.281Z,51.90
2019-03-31T11:26:08.117Z,53.38
2019-03-31T11:28:41.100Z,53.80
2019-03-31T11:31:13.790Z,52.03
2019-03-31T11:33:48.098Z,51.26
2019-03-31T11:36:20.883Z,52.43
2019-03-31T11:38:53.468Z,53.35
2019-03-31T11:41:26.442Z,54.75
2019-03-31T11:44:01.471Z,53.12
2019-03-31T11:46:34.058Z,52.99
2019-03-31T11:49:07.142Z,53.68
2019-03-31T11:51:39.820Z,53.04
2019-03-31T11:54:12.493Z,51.18
2019-03-31T11:56:44.913Z,50.38
2019-03-31T11:59:20.681Z,51.54
2019-03-31T12:01:52.544Z,51.04
2019-03-31T12:04:25.174Z,52.19
2019-03-31T12:06:57.841Z,52.48
2019-03-31T12:09:30.417Z,52.27
2019-03-31T12:12:03.101Z,52.39
2019-03-31T12:14:37.409Z,52.87
2019-03-31T12:17:10.299Z,52.45
2019-03-31T12:19:43.554Z,51.29
2019-03-31T12:22:16.678Z,48.83
2019-03-31T12:24:49.259Z,46.32
2019-03-31T12:27:21.447Z,48.60
2019-03-31T12:29:54.002Z,50.76
2019-03-31T12:32:26.184Z,51.19
2019-03-31T12:34:58.951Z,51.54
2019-03-31T12:37:42.243Z,51.73
2019-03-31T12:40:09.423Z,52.73
2019-03-31T12:42:42.114Z,52.63
2019-03-31T12:45:15.606Z,53.55
2019-03-31T12:47:48.181Z,53.27
2019-03-31T12:50:21.886Z,54.40
2019-03-31T12:52:54.568Z,54.97
2019-03-31T12:55:28.200Z,54.70
2019-03-31T12:58:02.174Z,54.91
2019-03-31T13:00:35.166Z,55.25
2019-03-31T13:03:07.852Z,55.46
2019-03-31T13:05:40.835Z,55.25
2019-03-31T13:08:14.111Z,54.40
2019-03-31T13:10:46.689Z,48.70
2019-03-31T13:13:19.433Z,45.69
2019-03-31T13:15:52.107Z,40.74
2019-03-31T13:18:27.774Z,42.40
2019-03-31T13:20:58.992Z,43.97
2019-03-31T13:23:31.634Z,45.52
2019-03-31T13:26:04.212Z,47.24
2019-03-31T13:28:36.415Z,48.50
2019-03-31T13:31:09.151Z,50.27
2019-03-31T13:33:41.838Z,51.08
2019-03-31T13:36:14.319Z,51.86
2019-03-31T13:38:47.504Z,51.58
2019-03-31T13:41:20.091Z,51.75
2019-03-31T13:43:52.644Z,52.20
2019-03-31T13:46:25.859Z,52.61
2019-03-31T13:48:58.522Z,51.74
2019-03-31T13:51:30.757Z,52.06
2019-03-31T13:54:03.716Z,51.71
2019-03-31T13:56:38.551Z,47.26
2019-03-31T13:59:11.375Z,42.94
2019-03-31T14:01:44.902Z,41.30
2019-03-31T14:07:18.176Z,39.78
2019-03-31T14:09:56.106Z,36.83
2019-03-31T14:15:43.976Z,36.47
2019-03-31T14:28:36.326Z,34.60
2019-03-31T14:40:52.309Z,32.57
2019-03-31T14:54:15.111Z,28.67
2019-03-31T14:57:13.873Z,32.58
2019-03-31T15:46:58.553Z,27.72
2019-03-31T15:49:44.051Z,33.41
2019-03-31T15:58:35.185Z,35.86
2019-03-31T16:01:18.299Z,36.66
2019-03-31T16:04:05.565Z,36.65
2019-03-31T16:06:51.788Z,36.65
2019-03-31T16:13:02.434Z,32.63
2019-03-31T16:19:54.980Z,31.84
2019-03-31T16:22:37.388Z,34.84
2019-03-31T16:28:52.712Z,35.88
2019-03-31T16:31:31.422Z,36.71
2019-03-31T16:34:11.825Z,36.66
2019-03-31T16:37:07.802Z,36.14
2019-03-31T16:39:52.988Z,36.17
2019-03-31T16:42:27.206Z,35.33
2019-03-31T16:45:13.015Z,34.49
2019-03-31T16:47:56.853Z,36.07
2019-03-31T16:50:36.749Z,36.70
2019-03-31T16:59:35.883Z,34.49
2019-03-31T17:05:21.669Z,36.76
2019-03-31T17:07:49.742Z,37.26
2019-03-31T17:10:30.703Z,38.32
2019-03-31T17:13:06.854Z,37.69
2019-03-31T17:15:40.894Z,38.18
2019-03-31T17:18:14.031Z,37.64
2019-03-31T17:20:48.929Z,37.84
2019-03-31T17:23:22.118Z,37.87
2019-03-31T17:25:54.997Z,37.65
2019-03-31T17:28:27.649Z,37.89
2019-03-31T17:31:01.302Z,37.87
2019-03-31T17:33:35.070Z,38.07
2019-03-31T17:36:07.312Z,37.95
2019-03-31T17:38:40.509Z,38.39
2019-03-31T17:41:15.621Z,37.55
2019-03-31T17:43:48.988Z,38.53
2019-03-31T17:46:25.329Z,37.90
2019-03-31T17:48:59.367Z,38.07
2019-03-31T17:51:33.959Z,37.58
2019-03-31T17:54:09.367Z,37.42
2019-03-31T17:56:45.413Z,36.68
2019-03-31T17:59:20.203Z,36.23
2019-03-31T18:01:53.562Z,35.77
2019-03-31T18:04:26.727Z,35.37
2019-03-31T18:07:00.182Z,35.62
2019-03-31T18:09:33.119Z,35.05
2019-03-31T18:12:06.215Z,35.41
2019-03-31T18:14:39.132Z,35.48
2019-03-31T18:17:11.941Z,35.06
2019-03-31T18:19:44.418Z,35.06
2019-03-31T18:22:17.326Z,35.22
2019-03-31T18:24:50.212Z,35.36
2019-03-31T18:27:23.096Z,35.68
2019-03-31T18:29:56.933Z,35.98
2019-03-31T18:32:29.755Z,36.59
2019-03-31T18:35:03.714Z,37.03
2019-03-31T18:37:36.131Z,37.73
2019-03-31T18:40:10.815Z,38.19
2019-03-31T18:42:45.069Z,38.74
2019-03-31T18:45:19.832Z,39.03
2019-03-31T18:47:54.128Z,39.28
2019-03-31T18:50:27.004Z,40.13
2019-03-31T18:52:59.549Z,40.00
2019-03-31T18:55:34.428Z,40.70
2019-03-31T18:58:08.994Z,41.23
2019-03-31T19:00:48.976Z,42.12
2019-03-31T19:03:26.022Z,42.43
2019-03-31T19:06:07.054Z,42.82
2019-03-31T19:09:02.840Z,43.39
2019-03-31T19:11:54.246Z,43.72
2019-03-31T19:14:39.110Z,43.92
2019-03-31T19:17:16.466Z,43.57
2019-03-31T19:19:52.596Z,43.59
2019-03-31T19:22:37.399Z,44.66
2019-03-31T19:25:13.586Z,43.69
2019-03-31T19:27:51.781Z,44.06
2019-03-31T19:30:35.932Z,45.09
2019-03-31T19:33:26.667Z,45.10
2019-03-31T19:36:14.160Z,45.43
2019-03-31T19:39:03.433Z,45.82
2019-03-31T19:41:54.515Z,46.14
2019-03-31T19:44:45.340Z,46.58
2019-03-31T19:47:36.001Z,47.47
2019-03-31T19:50:11.697Z,47.36
2019-03-31T19:52:51.307Z,47.47
2019-03-31T19:55:35.294Z,48.19
2019-03-31T19:58:15.713Z,48.44
2019-03-31T20:00:55.768Z,48.92
2019-03-31T20:03:45.317Z,49.81
2019-03-31T20:06:26.884Z,50.02
2019-03-31T20:09:08.579Z,50.89
2019-03-31T20:11:43.671Z,50.87
2019-03-31T20:14:34.088Z,50.80
2019-03-31T20:17:20.735Z,51.22
2019-03-31T20:19:58.185Z,51.37
2019-03-31T20:22:35.184Z,51.63
2019-03-31T20:25:10.503Z,52.08
2019-03-31T20:27:48.955Z,52.49
2019-03-31T20:30:38.779Z,52.69
2019-03-31T20:33:11.053Z,53.01
2019-03-31T20:35:55.092Z,53.25
2019-03-31T20:38:30.437Z,53.67
2019-03-31T20:41:20.733Z,54.01
2019-03-31T20:43:53.516Z,54.21
2019-03-31T20:46:26.295Z,54.62
2019-03-31T20:48:59.185Z,55.13
2019-03-31T20:51:31.874Z,55.69
2019-03-31T20:54:04.718Z,55.83
2019-03-31T20:56:37.322Z,56.02
2019-03-31T20:59:10.010Z,56.46
2019-03-31T21:01:42.882Z,56.62
2019-03-31T21:04:15.999Z,56.97
2019-03-31T21:06:49.162Z,57.33
2019-03-31T21:09:22.147Z,57.23
2019-03-31T21:11:54.725Z,57.41
2019-03-31T21:14:27.307Z,58.01
2019-03-31T21:16:59.880Z,57.77
2019-03-31T21:19:32.762Z,58.35
2019-03-31T21:22:05.345Z,58.41
2019-03-31T21:24:37.909Z,59.00
2019-03-31T21:27:10.800Z,58.43
2019-03-31T21:29:43.368Z,58.72
2019-03-31T21:32:15.906Z,58.54
2019-03-31T21:34:49.870Z,58.51
2019-03-31T21:37:23.265Z,58.50
2019-03-31T21:39:56.144Z,58.83
2019-03-31T21:42:28.275Z,59.13
2019-03-31T21:45:00.891Z,59.39
2019-03-31T21:47:33.562Z,59.57
2019-03-31T21:50:08.190Z,59.76
2019-03-31T21:52:40.312Z,60.00
2019-03-31T21:55:13.436Z,60.22
2019-03-31T21:57:45.919Z,60.25
2019-03-31T22:00:20.854Z,60.62
2019-03-31T22:02:54.970Z,60.29
2019-03-31T22:05:27.750Z,60.52
2019-03-31T22:08:03.809Z,60.91
2019-03-31T22:10:35.160Z,60.89
2019-03-31T22:13:09.365Z,60.90
2019-03-31T22:15:42.054Z,61.10
2019-03-31T22:18:14.623Z,61.01
2019-03-31T22:20:47.506Z,61.35
2019-03-31T22:23:20.506Z,61.37
2019-03-31T22:25:53.581Z,61.56
2019-03-31T22:28:26.163Z,61.96
2019-03-31T22:30:58.840Z,61.97
2019-03-31T22:33:31.527Z,62.00
2019-03-31T22:36:22.527Z,62.13
2019-03-31T22:38:56.431Z,62.36
2019-03-31T22:41:29.103Z,62.56
2019-03-31T22:44:01.687Z,62.53
2019-03-31T22:46:34.360Z,62.85
2019-03-31T22:49:07.463Z,62.70
2019-03-31T22:51:40.037Z,62.81
2019-03-31T22:54:12.603Z,62.72
2019-03-31T22:56:45.339Z,62.79
2019-03-31T22:59:17.866Z,63.05
2019-03-31T23:01:50.442Z,63.04
2019-03-31T23:04:23.019Z,62.98
2019-03-31T23:06:55.695Z,63.05
2019-03-31T23:09:28.274Z,63.23
2019-03-31T23:12:00.952Z,63.17
2019-03-31T23:14:33.529Z,63.48
2019-03-31T23:17:06.208Z,63.54
2019-03-31T23:19:38.785Z,63.67
2019-03-31T23:22:11.468Z,64.15
2019-03-31T23:24:43.937Z,64.06
2019-03-31T23:27:16.103Z,64.04
2019-03-31T23:29:48.578Z,64.18
2019-03-31T23:32:21.159Z,64.57
2019-03-31T23:34:54.101Z,64.48
2019-03-31T23:37:28.473Z,64.62
2019-03-31T23:40:02.267Z,64.89
2019-03-31T23:42:34.994Z,65.05
2019-03-31T23:45:09.465Z,65.22
2019-03-31T23:47:42.044Z,65.37
2019-03-31T23:50:15.333Z,65.49
2019-03-31T23:52:48.017Z,65.47
2019-03-31T23:55:20.485Z,65.67
2019-03-31T23:57:54.192Z,65.87
